Time;durP1;ratioP1;P1;durP2;ratioP2;P2;SDS_P1;SDS_P2;PMS_P1;PMS_P2;Temp;Humidity;BMP_temperature;BMP_pressure;BME280_temperature;BME280_humidity;BME280_pressure;Samples;Min_cycle;Max_cycle;Signal;HPM_P1;HPM_P2
2021/12/23 00:00:12;;;;;;;;;;;-4.50;99.90;;;-5.77;100.00;101002.75;4969071;28;19960;-76
2021/12/23 00:02:39;;;;;;;;;;;-4.70;99.90;;;-5.71;100.00;101002.19;4952294;28;19937;-76
2021/12/23 00:05:08;;;;;;;;;;;-4.60;99.90;;;-5.66;100.00;101000.75;4968720;28;20372;-77
2021/12/23 00:07:35;;;;;;;;;;;-4.40;99.90;;;-5.65;100.00;100996.50;4968906;28;20612;-76
2021/12/23 00:10:08;;;;;;;;;;;-4.60;99.90;;;-5.75;100.00;100998.59;4968637;28;19955;-74
2021/12/23 00:12:38;;;;;;;;;;;-4.50;99.90;;;-5.69;100.00;101003.16;4968632;28;20462;-76
2021/12/23 00:15:22;;;;;;;;;;;-4.50;99.90;;;-5.66;100.00;100992.19;4969050;28;19958;-76
2021/12/23 00:17:56;;;;;;;;;;;-4.70;99.90;;;-5.70;100.00;100983.44;4952518;28;19969;-77
2021/12/23 00:25:38;;;;;;;;;;;-4.30;99.90;;;-5.66;100.00;100979.38;4969807;28;19926;-77
2021/12/23 00:28:05;;;;;;;;;;;-4.30;99.90;;;-5.58;100.00;100973.81;4968491;28;20402;-77
2021/12/23 00:30:32;;;;;;;;;;;-4.50;99.90;;;-5.66;100.00;100967.41;4970055;28;20376;-77
2021/12/23 00:32:59;;;;;;;;;;;-2.50;99.90;;;-5.74;100.00;100974.72;4968266;28;19931;-76
2021/12/23 00:35:26;;;;;;;;;;;-4.30;99.90;;;-5.80;100.00;100966.72;4968716;28;19954;-77
2021/12/23 00:38:01;;;;;;;;;;;-4.60;99.90;;;-5.84;100.00;100970.78;4969682;28;19938;-77
2021/12/23 00:40:28;;;;;;;;;;;-3.30;99.90;;;-5.84;100.00;100964.78;4968094;28;19930;-75
2021/12/23 00:42:56;;;;;;;;;;;-4.60;99.90;;;-5.88;100.00;100957.72;4968904;28;19941;-76
2021/12/23 00:45:24;;;;;;;;;;;-4.70;99.90;;;-5.94;100.00;100952.28;4967605;28;19937;-76
2021/12/23 00:47:51;;;;;;;;;;;-4.50;99.90;;;-5.98;100.00;100956.38;4969035;28;19926;-76
2021/12/23 00:50:17;;;;;;;;;;;-4.60;99.90;;;-5.86;100.00;100956.13;4969400;28;19953;-76
2021/12/23 00:52:55;;;;;;;;;;;-4.70;99.90;;;-5.82;100.00;100932.44;4951386;28;19936;-76
2021/12/23 00:55:22;;;;;;;;;;;-4.80;99.90;;;-5.80;100.00;100938.50;4967901;28;19926;-77
2021/12/23 00:57:49;;;;;;;;;;;-4.50;99.90;;;-5.72;100.00;100933.78;4967813;28;19937;-76
2021/12/23 01:00:19;;;;;;;;;;;-4.50;99.90;;;-5.65;100.00;100940.97;4967850;28;20490;-76
2021/12/23 01:02:47;;;;;;;;;;;-4.80;99.90;;;-5.57;100.00;100943.91;4967787;28;19926;-77
2021/12/23 01:05:17;;;;;;;;;;;-4.80;99.90;;;-5.57;100.00;100946.50;4969061;28;20398;-77
2021/12/23 01:07:44;;;;;;;;;;;-4.20;99.90;;;-5.53;100.00;100943.28;4967912;28;19929;-76
2021/12/23 01:10:11;;;;;;;;;;;-4.60;99.90;;;-5.55;100.00;100938.06;4967955;28;19926;-76
2021/12/23 01:12:46;;;;;;;;;;;-4.50;99.90;;;-5.62;100.00;100924.88;4967760;28;19933;-76
2021/12/23 01:18:08;;;;;;;;;;;-4.60;99.90;;;-5.64;100.00;100927.34;4967717;28;20268;-76
2021/12/23 01:20:37;;;;;;;;;;;-4.40;99.90;;;-5.68;100.00;100930.56;4951598;28;19940;-76
2021/12/23 01:23:09;;;;;;;;;;;-4.60;99.90;;;-5.76;100.00;100932.72;4967669;28;20482;-77
2021/12/23 01:25:39;;;;;;;;;;;-4.40;99.90;;;-5.81;100.00;100934.19;4967765;28;19996;-76
2021/12/23 01:28:07;;;;;;;;;;;-4.60;99.90;;;-5.78;100.00;100941.13;4967873;28;20006;-76
2021/12/23 01:30:37;;;;;;;;;;;-4.50;99.90;;;-5.66;100.00;100935.78;4967502;28;19931;-76
2021/12/23 01:33:07;;;;;;;;;;;-4.60;99.90;;;-5.47;100.00;100925.66;4967716;28;19941;-76
2021/12/23 01:35:35;;;;;;;;;;;-4.60;99.90;;;-5.35;100.00;100930.50;4967576;28;19926;-76
2021/12/23 01:38:02;;;;;;;;;;;-4.30;99.90;;;-5.38;100.00;100934.63;4951492;28;19933;-76
2021/12/23 01:40:30;;;;;;;;;;;-4.30;99.90;;;-5.46;100.00;100932.53;4968854;28;19937;-75
2021/12/23 01:42:57;;;;;;;;;;;-4.20;99.90;;;-5.51;100.00;100939.13;4967200;28;20303;-76
2021/12/23 01:45:30;;;;;;;;;;;-4.20;99.90;;;-5.47;100.00;100935.00;4967780;28;20411;-76
2021/12/23 01:47:57;;;;;;;;;;;-4.40;99.90;;;-5.60;100.00;100933.50;4969010;28;19926;-76
2021/12/23 01:50:29;;;;;;;;;;;-4.30;99.90;;;-5.65;100.00;100928.16;4967680;28;20351;-76
2021/12/23 01:52:59;;;;;;;;;;;-4.50;99.90;;;-5.59;100.00;100928.47;4968441;28;19930;-76
2021/12/23 01:55:28;;;;;;;;;;;-4.20;99.90;;;-5.68;100.00;100922.88;4951287;28;19930;-76
2021/12/23 01:57:56;;;;;;;;;;;-4.50;99.90;;;-5.63;100.00;100920.53;4969244;28;19934;-76
2021/12/23 02:00:26;;;;;;;;;;;-4.60;99.90;;;-5.68;100.00;100927.13;4972472;28;19926;-77
2021/12/23 02:02:55;;;;;;;;;;;-4.30;99.90;;;-5.77;100.00;100920.72;4986491;28;19984;-78
2021/12/23 02:05:23;;;;;;;;;;;-4.60;99.90;;;-5.75;100.00;100915.69;4972364;28;19930;-77
2021/12/23 02:07:50;;;;;;;;;;;-4.60;99.90;;;-5.72;100.00;100919.25;4971056;28;19930;-77
2021/12/23 02:10:18;;;;;;;;;;;-4.50;99.90;;;-5.66;100.00;100913.56;4970963;28;19930;-76
2021/12/23 02:12:47;;;;;;;;;;;-4.40;99.90;;;-5.66;100.00;100903.31;4970084;28;19941;-76
2021/12/23 02:15:15;;;;;;;;;;;-4.50;99.90;;;-5.66;100.00;100900.75;4955129;28;19926;-76
2021/12/23 02:17:42;;;;;;;;;;;-4.50;99.90;;;-5.57;100.00;100906.34;4971471;28;19926;-76
2021/12/23 02:20:12;;;;;;;;;;;-4.50;99.90;;;-5.58;100.00;100899.47;4981082;28;19926;-76
2021/12/23 02:22:40;;;;;;;;;;;-4.50;99.90;;;-5.51;100.00;100887.84;4971009;28;19937;-76
2021/12/23 02:25:09;;;;;;;;;;;-4.30;99.90;;;-5.39;100.00;100882.41;4970601;28;20453;-76
2021/12/23 02:27:35;;;;;;;;;;;-4.40;99.90;;;-5.30;100.00;100875.19;4970869;28;19926;-77
2021/12/23 02:30:10;;;;;;;;;;;-4.30;99.90;;;-5.21;100.00;100879.88;4954623;28;19936;-77
2021/12/23 02:32:38;;;;;;;;;;;-4.20;99.90;;;-5.21;100.00;100864.50;4969919;28;19979;-77
2021/12/23 02:35:09;;;;;;;;;;;-2.70;99.90;;;-5.10;100.00;100856.41;4970454;28;19941;-77
2021/12/23 02:37:35;;;;;;;;;;;-4.20;99.90;;;-5.09;100.00;100848.78;4970524;28;19930;-77
2021/12/23 02:40:04;;;;;;;;;;;-4.00;99.90;;;-4.99;100.00;100843.28;4970746;28;20315;-77
2021/12/23 02:42:30;;;;;;;;;;;-3.90;99.90;;;-4.90;100.00;100852.22;4971290;28;19930;-77
2021/12/23 02:44:58;;;;;;;;;;;-4.00;99.90;;;-4.78;100.00;100852.78;4954459;28;19937;-77
2021/12/23 02:47:25;;;;;;;;;;;-4.10;99.90;;;-4.75;100.00;100841.78;4954847;28;19934;-77
2021/12/23 02:49:52;;;;;;;;;;;-3.70;99.90;;;-4.68;100.00;100835.22;4986802;28;20002;-77
2021/12/23 02:52:19;;;;;;;;;;;-3.80;99.90;;;-4.71;100.00;100843.69;4969892;28;19937;-77
2021/12/23 02:54:54;;;;;;;;;;;-3.70;99.90;;;-4.71;100.00;100843.69;4986491;28;19938;-75
2021/12/23 02:57:21;;;;;;;;;;;-3.80;99.90;;;-4.72;100.00;100832.50;4970705;28;19926;-75
2021/12/23 02:59:48;;;;;;;;;;;-4.00;99.90;;;-4.68;100.00;100830.97;4970408;28;20306;-75
2021/12/23 03:02:15;;;;;;;;;;;-3.10;99.90;;;-4.68;100.00;100830.97;4953551;28;20633;-75
2021/12/23 03:04:43;;;;;;;;;;;-3.80;99.90;;;-4.65;100.00;100833.69;4969552;28;19930;-76
2021/12/23 03:07:10;;;;;;;;;;;-3.60;99.90;;;-4.58;100.00;100816.84;4970429;28;19942;-75
2021/12/23 03:09:37;;;;;;;;;;;-3.50;99.90;;;-4.50;100.00;100818.09;4970464;28;19930;-75
2021/12/23 03:12:04;;;;;;;;;;;-1.90;99.90;;;-4.45;100.00;100820.84;4971260;28;19933;-75
2021/12/23 03:14:31;;;;;;;;;;;-3.70;99.90;;;-4.39;100.00;100809.97;4968497;28;19926;-75
2021/12/23 03:17:00;;;;;;;;;;;-3.50;99.90;;;-4.35;100.00;100815.31;4969821;28;19930;-75
2021/12/23 03:19:27;;;;;;;;;;;-3.40;99.90;;;-4.32;100.00;100830.84;4971028;28;20310;-75
2021/12/23 03:21:54;;;;;;;;;;;-3.50;99.90;;;-4.25;100.00;100831.16;4970719;28;19930;-75
2021/12/23 03:24:21;;;;;;;;;;;-3.50;99.90;;;-4.31;100.00;100834.31;4968246;28;20303;-75
2021/12/23 03:26:48;;;;;;;;;;;-3.40;99.90;;;-4.27;100.00;100838.78;4970723;28;20012;-75
2021/12/23 03:29:15;;;;;;;;;;;-3.30;99.90;;;-4.31;100.00;100817.19;4970608;28;20018;-75
2021/12/23 03:31:42;;;;;;;;;;;-3.20;99.90;;;-4.27;100.00;100819.09;4985438;28;19933;-75
2021/12/23 03:34:09;;;;;;;;;;;-3.20;99.90;;;-4.24;100.00;100815.78;4969389;28;20029;-75
2021/12/23 03:36:36;;;;;;;;;;;-3.30;99.90;;;-4.31;100.00;100819.75;4969109;28;19930;-75
2021/12/23 03:39:04;;;;;;;;;;;-3.30;99.90;;;-4.30;100.00;100816.38;4969140;28;19930;-75
2021/12/23 03:41:31;;;;;;;;;;;-3.30;99.90;;;-4.29;100.00;100802.75;4970505;28;20288;-75
2021/12/23 03:43:58;;;;;;;;;;;-3.30;99.90;;;-4.19;100.00;100813.41;4967844;28;19926;-75
2021/12/23 03:46:25;;;;;;;;;;;-3.50;99.90;;;-4.17;100.00;100804.97;4970377;28;19934;-75
2021/12/23 03:48:52;;;;;;;;;;;-3.30;99.90;;;-4.09;100.00;100789.88;4969017;28;20311;-75
2021/12/23 03:51:19;;;;;;;;;;;-3.20;99.90;;;-4.06;100.00;100797.69;4968927;28;20014;-75
2021/12/23 03:53:46;;;;;;;;;;;-3.20;99.90;;;-4.06;100.00;100783.97;4967702;28;20481;-75
2021/12/23 03:56:14;;;;;;;;;;;-0.60;99.90;;;-4.05;100.00;100785.75;4969613;28;19927;-75
2021/12/23 03:58:40;;;;;;;;;;;-3.20;99.90;;;-4.02;100.00;100781.59;4970148;28;19949;-75
2021/12/23 04:01:07;;;;;;;;;;;-3.10;99.90;;;-4.05;100.00;100788.31;4970154;28;19937;-75
2021/12/23 04:03:35;;;;;;;;;;;-3.30;99.90;;;-4.06;100.00;100786.53;4951763;28;19934;-75
2021/12/23 04:06:02;;;;;;;;;;;-3.10;99.90;;;-4.07;100.00;100775.38;4968675;28;19930;-75
2021/12/23 04:08:28;;;;;;;;;;;-3.30;99.90;;;-4.03;100.00;100768.69;4968948;28;19933;-75
2021/12/23 04:10:59;;;;;;;;;;;-3.10;99.90;;;-4.01;100.00;100774.78;4955249;28;19949;-75
2021/12/23 04:13:26;;;;;;;;;;;-3.40;99.90;;;-4.01;100.00;100767.91;4963300;28;19933;-75
2021/12/23 04:15:53;;;;;;;;;;;-3.10;99.90;;;-4.00;100.00;100767.09;4965330;28;20407;-75
2021/12/23 04:18:21;;;;;;;;;;;-2.90;99.90;;;-3.97;100.00;100771.50;4965208;28;19942;-76
2021/12/23 04:20:54;;;;;;;;;;;-3.00;99.90;;;-3.97;100.00;100779.22;4964866;28;20395;-75
2021/12/23 04:23:26;;;;;;;;;;;-3.10;99.90;;;-3.99;100.00;100778.28;4949053;29;19927;-75
2021/12/23 04:25:54;;;;;;;;;;;-3.10;99.90;;;-3.98;100.00;100772.31;4950503;29;20041;-75
2021/12/23 04:28:22;;;;;;;;;;;-3.00;99.90;;;-3.95;100.00;100764.72;4965104;28;20300;-75
2021/12/23 04:30:50;;;;;;;;;;;-3.20;99.90;;;-3.97;100.00;100750.06;4950254;29;19945;-75
2021/12/23 04:33:17;;;;;;;;;;;-2.90;99.90;;;-3.94;100.00;100750.19;4963342;28;19982;-75
2021/12/23 04:35:44;;;;;;;;;;;-3.10;99.90;;;-3.96;100.00;100739.84;4950201;29;19930;-74
2021/12/23 04:38:10;;;;;;;;;;;-2.10;99.90;;;-3.92;100.00;100730.56;4964890;28;19993;-75
2021/12/23 04:40:37;;;;;;;;;;;-3.00;99.90;;;-3.90;100.00;100732.41;4948952;29;19941;-75
2021/12/23 04:43:06;;;;;;;;;;;-3.10;99.90;;;-3.89;100.00;100735.81;4963994;28;19930;-75
2021/12/23 04:45:33;;;;;;;;;;;-2.80;99.90;;;-3.91;100.00;100734.88;4964744;28;20319;-75
2021/12/23 04:48:00;;;;;;;;;;;-3.30;99.90;;;-3.87;100.00;100742.81;4964926;28;19930;-75
2021/12/23 04:50:27;;;;;;;;;;;-3.20;99.90;;;-3.84;100.00;100742.03;4980181;28;19945;-75
2021/12/23 04:52:54;;;;;;;;;;;-3.00;99.90;;;-3.81;100.00;100744.75;4967095;28;19930;-75
2021/12/23 04:55:21;;;;;;;;;;;-2.10;99.90;;;-3.82;100.00;100743.00;4967338;28;19932;-75
2021/12/23 04:57:48;;;;;;;;;;;-2.00;99.90;;;-3.85;100.00;100733.44;4969265;28;20527;-75
2021/12/23 05:00:18;;;;;;;;;;;-3.00;99.90;;;-3.79;100.00;100726.78;4968929;28;20387;-74
2021/12/23 05:02:46;;;;;;;;;;;-1.90;99.90;;;-3.77;100.00;100720.00;4964956;28;19930;-75
2021/12/23 05:05:14;;;;;;;;;;;-3.00;99.90;;;-3.71;100.00;100715.13;4967315;28;19930;-75
2021/12/23 05:07:41;;;;;;;;;;;-2.90;99.90;;;-3.72;100.00;100709.09;4968066;28;19930;-75
2021/12/23 05:10:10;;;;;;;;;;;-2.80;99.90;;;-3.65;100.00;100717.06;4967941;28;19930;-75
2021/12/23 05:12:43;;;;;;;;;;;-3.00;99.90;;;-3.70;100.00;100720.31;4982994;28;19926;-75
2021/12/23 05:15:11;;;;;;;;;;;-2.80;99.90;;;-3.66;100.00;100715.31;4967815;28;20396;-75
2021/12/23 05:17:38;;;;;;;;;;;-2.90;99.90;;;-3.63;100.00;100692.28;4969113;28;19938;-75
2021/12/23 05:20:06;;;;;;;;;;;-2.70;99.90;;;-3.66;100.00;100687.03;4936212;28;19937;-75
2021/12/23 05:22:34;;;;;;;;;;;-2.90;99.90;;;-3.66;100.00;100687.03;4968425;28;20549;-75
2021/12/23 05:25:01;;;;;;;;;;;-2.70;99.90;;;-3.65;100.00;100683.63;4969349;28;19930;-75
2021/12/23 05:27:28;;;;;;;;;;;-2.80;99.90;;;-3.66;100.00;100682.75;4984315;28;19926;-75
2021/12/23 05:29:55;;;;;;;;;;;-2.70;99.90;;;-3.64;100.00;100687.97;4969183;28;19934;-75
2021/12/23 05:32:22;;;;;;;;;;;-3.00;99.90;;;-3.60;100.00;100685.53;4969491;28;19930;-75
2021/12/23 05:34:49;;;;;;;;;;;-2.80;99.90;;;-3.63;100.00;100685.44;4975502;28;19929;-74
2021/12/23 05:37:16;;;;;;;;;;;-2.80;99.90;;;-3.59;100.00;100687.31;4983014;28;19937;-75
2021/12/23 05:39:43;;;;;;;;;;;-2.60;99.90;;;-3.60;100.00;100690.69;4974489;28;19934;-75
2021/12/23 05:42:10;;;;;;;;;;;-2.60;99.90;;;-3.56;100.00;100708.00;4971610;28;19930;-75
2021/12/23 05:44:37;;;;;;;;;;;-2.90;99.90;;;-3.56;100.00;100702.88;4970170;28;19930;-75
2021/12/23 05:47:04;;;;;;;;;;;-2.60;99.90;;;-3.60;100.00;100693.25;4969321;28;20391;-76
2021/12/23 05:49:31;;;;;;;;;;;-2.80;99.90;;;-3.59;100.00;100691.56;4967673;28;19926;-74
2021/12/23 05:51:58;;;;;;;;;;;-2.60;99.90;;;-3.53;100.00;100689.22;4980392;28;19945;-74
2021/12/23 05:54:25;;;;;;;;;;;-2.80;99.90;;;-3.52;100.00;100678.13;4972571;28;19930;-76
2021/12/23 05:56:52;;;;;;;;;;;-2.50;99.90;;;-3.50;100.00;100679.09;4987137;28;20523;-76
2021/12/23 05:59:19;;;;;;;;;;;-2.30;99.90;;;-3.51;100.00;100676.44;4972696;28;20528;-76
2021/12/23 06:01:45;;;;;;;;;;;-2.50;99.90;;;-3.52;100.00;100679.84;4972206;28;19981;-75
2021/12/23 06:04:13;;;;;;;;;;;-0.50;99.90;;;-3.50;100.00;100691.06;4951010;28;19937;-76
2021/12/23 06:06:40;;;;;;;;;;;-2.60;99.90;;;-3.56;100.00;100687.44;4952010;28;19946;-76
2021/12/23 06:09:07;;;;;;;;;;;-2.80;99.90;;;-3.58;100.00;100683.94;4967727;28;19954;-76
2021/12/23 06:11:35;;;;;;;;;;;-1.10;99.90;;;-3.60;100.00;100680.41;4953854;29;19937;-76
2021/12/23 06:14:02;;;;;;;;;;;-2.70;99.90;;;-3.60;100.00;100684.69;4952026;29;19926;-76
2021/12/23 06:16:28;;;;;;;;;;;-2.70;99.90;;;-3.58;100.00;100691.66;4952452;29;19937;-77
2021/12/23 06:18:55;;;;;;;;;;;-1.70;99.90;;;-3.59;100.00;100691.56;4956837;28;20580;-76
2021/12/23 06:21:27;;;;;;;;;;;-3.00;99.90;;;-3.60;100.00;100675.25;4986821;28;20053;-76
2021/12/23 06:23:53;;;;;;;;;;;-2.50;99.90;;;-3.63;100.00;100674.28;4985618;28;19934;-76
2021/12/23 06:26:21;;;;;;;;;;;-1.30;99.90;;;-3.68;100.00;100676.66;4972476;28;19926;-76
2021/12/23 06:28:48;;;;;;;;;;;-2.80;99.90;;;-3.67;100.00;100672.38;4974810;28;19937;-76
2021/12/23 06:31:16;;;;;;;;;;;-2.80;99.90;;;-3.68;100.00;100676.66;4972827;28;19937;-76
2021/12/23 06:33:43;;;;;;;;;;;-2.80;99.90;;;-3.70;100.00;100663.72;4970090;28;19930;-76
2021/12/23 06:36:09;;;;;;;;;;;-2.90;99.90;;;-3.69;100.00;100680.06;4970824;28;19930;-76
2021/12/23 06:38:36;;;;;;;;;;;-1.30;99.90;;;-3.63;100.00;100682.00;4971827;28;19946;-76
2021/12/23 06:41:03;;;;;;;;;;;-2.90;99.90;;;-3.66;100.00;100675.03;4971342;28;20355;-76
2021/12/23 06:43:30;;;;;;;;;;;-2.80;99.90;;;-3.67;100.00;100672.38;4984215;28;19937;-76
2021/12/23 06:45:57;;;;;;;;;;;-2.90;99.90;;;-3.65;100.00;100668.19;4971004;28;19933;-76
2021/12/23 06:48:24;;;;;;;;;;;-2.60;99.90;;;-3.63;100.00;100664.84;4972680;28;20418;-76
2021/12/23 06:50:55;;;;;;;;;;;-2.70;99.90;;;-3.63;100.00;100662.28;4970391;28;20384;-76
2021/12/23 06:53:22;;;;;;;;;;;-2.40;99.90;;;-3.68;100.00;100639.75;4970430;28;19933;-76
2021/12/23 06:55:51;;;;;;;;;;;-2.90;99.90;;;-3.58;100.00;100636.72;4970078;28;19933;-76
2021/12/23 06:58:19;;;;;;;;;;;-2.60;99.90;;;-3.60;100.00;100638.38;4970122;28;19930;-76
2021/12/23 07:00:46;;;;;;;;;;;-2.70;99.90;;;-3.59;100.00;100629.84;4971439;28;19939;-75
2021/12/23 07:03:13;;;;;;;;;;;-2.60;99.90;;;-3.58;100.00;100629.00;4969105;28;20572;-77
2021/12/23 07:05:40;;;;;;;;;;;-1.20;99.90;;;-3.61;100.00;100634.06;4986308;28;20241;-76
2021/12/23 07:10:35;;;;;;;;;;;-2.70;99.90;;;-3.59;100.00;100641.03;4972903;28;19930;-76
2021/12/23 07:13:02;;;;;;;;;;;-2.60;99.90;;;-3.61;100.00;100639.19;4968811;28;19926;-76
2021/12/23 07:15:30;;;;;;;;;;;-2.80;99.90;;;-3.59;100.00;100633.31;4969608;28;19930;-76
2021/12/23 07:17:58;;;;;;;;;;;-2.80;99.90;;;-3.64;100.00;100636.50;4970198;28;20431;-75
2021/12/23 07:20:27;;;;;;;;;;;-2.60;99.90;;;-3.60;100.00;100643.53;4968281;28;20022;-75
2021/12/23 07:22:54;;;;;;;;;;;-2.70;99.90;;;-3.62;100.00;100627.16;4968562;28;20458;-77
2021/12/23 07:25:21;;;;;;;;;;;-2.60;99.90;;;-3.62;100.00;100632.31;4984668;28;19930;-75
2021/12/23 07:27:48;;;;;;;;;;;-2.70;99.90;;;-3.61;100.00;100636.63;4952951;28;19933;-75
2021/12/23 07:30:18;;;;;;;;;;;-2.70;99.90;;;-3.61;100.00;100628.91;4968845;28;19936;-76
2021/12/23 07:32:47;;;;;;;;;;;-1.80;99.90;;;-3.54;100.00;100636.03;4969101;28;20543;-76
2021/12/23 07:35:14;;;;;;;;;;;-1.00;99.90;;;-3.53;100.00;100627.47;4969244;28;19926;-76
2021/12/23 07:37:42;;;;;;;;;;;-2.70;99.90;;;-3.44;100.00;100642.38;4970347;28;19931;-76
2021/12/23 07:40:17;;;;;;;;;;;-2.50;99.90;;;-3.40;100.00;100651.09;4980634;28;19938;-75
2021/12/23 07:42:53;;;;;;;;;;;-2.40;99.90;;;-3.40;100.00;100644.28;4969426;28;19934;-76
2021/12/23 07:45:29;;;;;;;;;;;-2.30;99.90;;;-3.41;100.00;100627.09;4970991;28;19953;-77
2021/12/23 07:47:56;;;;;;;;;;;-2.50;99.90;;;-3.36;100.00;100617.84;4969955;28;20024;-77
2021/12/23 07:50:23;;;;;;;;;;;-2.30;99.90;;;-3.37;100.00;100621.22;4969524;28;19932;-77
2021/12/23 07:52:51;;;;;;;;;;;-1.80;99.90;;;-3.34;100.00;100616.19;4952222;28;20008;-76
2021/12/23 07:55:20;;;;;;;;;;;-2.50;99.90;;;-3.34;100.00;100618.75;4981270;28;19934;-76
2021/12/23 07:57:48;;;;;;;;;;;-2.50;99.90;;;-3.31;100.00;100616.28;4949876;29;19946;-77
2021/12/23 08:00:16;;;;;;;;;;;-1.40;99.90;;;-3.31;100.00;100631.72;4955306;28;19930;-77
2021/12/23 08:02:43;;;;;;;;;;;-2.60;99.90;;;-3.29;100.00;100635.25;4982082;28;20323;-77
2021/12/23 08:05:10;;;;;;;;;;;-2.50;99.90;;;-3.24;100.00;100622.53;4968685;28;19936;-77
2021/12/23 08:07:37;;;;;;;;;;;-2.20;99.90;;;-3.18;100.00;100619.31;4981208;28;19930;-76
2021/12/23 08:10:05;;;;;;;;;;;-1.10;99.90;;;-3.12;100.00;100604.13;4950968;29;19935;-76
2021/12/23 08:12:32;;;;;;;;;;;-2.30;99.90;;;-3.09;100.00;100614.50;4963047;28;20469;-76
2021/12/23 08:14:59;;;;;;;;;;;-2.40;99.90;;;-3.02;100.00;100605.31;4962240;28;19930;-76
2021/12/23 08:17:34;;;;;;;;;;;-3.00;99.90;;;-2.97;100.00;100600.28;4950838;29;20716;-78
2021/12/23 08:20:01;;;;;;;;;;;-1.00;99.90;;;-2.88;100.00;100592.91;4969497;28;20022;-77
2021/12/23 08:22:28;;;;;;;;;;;-2.10;99.90;;;-2.85;100.00;100605.88;4953744;28;19931;-76
2021/12/23 08:24:55;;;;;;;;;;;-2.00;99.90;;;-2.84;100.00;100610.22;4966263;28;19930;-76
2021/12/23 08:27:25;;;;;;;;;;;-1.90;99.90;;;-2.75;100.00;100612.22;4966272;28;20592;-76
2021/12/23 08:29:53;;;;;;;;;;;-0.60;99.90;;;-2.72;100.00;100609.78;4965737;28;19937;-76
2021/12/23 08:32:21;;;;;;;;;;;0.50;99.90;;;-2.71;100.00;100601.22;4975633;28;19930;-76
2021/12/23 08:34:48;;;;;;;;;;;-2.10;99.90;;;-2.63;100.00;100591.16;4966792;28;19934;-76
2021/12/23 08:37:17;;;;;;;;;;;-1.90;99.90;;;-2.61;100.00;100582.66;4968540;28;19941;-76
2021/12/23 08:39:47;;;;;;;;;;;-1.40;99.90;;;-2.52;100.00;100591.53;4967929;28;20434;-76
2021/12/23 08:42:14;;;;;;;;;;;-1.90;99.90;;;-2.48;100.00;100581.38;4968055;28;19953;-76
2021/12/23 08:44:41;;;;;;;;;;;-1.80;99.90;;;-2.46;100.00;100584.88;4952077;28;20017;-76
2021/12/23 08:47:09;;;;;;;;;;;-1.60;99.90;;;-2.39;100.00;100575.63;4969762;28;20459;-76
2021/12/23 08:49:37;;;;;;;;;;;0.90;99.90;;;-2.37;100.00;100580.81;4966162;28;20005;-76
2021/12/23 08:52:04;;;;;;;;;;;-0.90;99.90;;;-2.35;100.00;100572.31;4966413;28;19926;-76
2021/12/23 08:54:31;;;;;;;;;;;-1.70;99.90;;;-2.22;100.00;100577.88;4967365;28;19930;-76
2021/12/23 08:56:58;;;;;;;;;;;0.10;99.90;;;-2.18;100.00;100572.88;4967894;28;20399;-76
2021/12/23 08:59:26;;;;;;;;;;;-1.50;99.90;;;-2.08;100.00;100575.72;4967651;28;19997;-76
2021/12/23 09:01:55;;;;;;;;;;;-1.50;99.90;;;-2.02;100.00;100579.34;4967523;28;20021;-76
2021/12/23 09:04:22;;;;;;;;;;;-0.30;99.90;;;-1.94;100.00;100576.16;4967773;28;20021;-77
2021/12/23 09:06:49;;;;;;;;;;;-1.30;99.90;;;-1.88;100.00;100577.19;4970314;28;19930;-78
2021/12/23 09:09:17;;;;;;;;;;;1.30;99.90;;;-1.82;100.00;100578.22;4971053;28;19937;-77
2021/12/23 09:11:45;;;;;;;;;;;0.90;99.90;;;-1.76;100.00;100568.97;4971369;28;19949;-77
2021/12/23 09:14:12;;;;;;;;;;;0.90;99.90;;;-1.69;100.00;100572.59;4969998;28;19930;-77
2021/12/23 09:16:39;;;;;;;;;;;-0.90;99.90;;;-1.65;100.00;100573.53;4970176;28;19926;-78
2021/12/23 09:19:07;;;;;;;;;;;1.70;99.90;;;-1.59;100.00;100563.41;4970364;28;19926;-76
2021/12/23 09:21:36;;;;;;;;;;;-0.70;99.90;;;-1.49;100.00;100560.25;4970210;28;20023;-77
2021/12/23 09:24:04;;;;;;;;;;;1.50;99.90;;;-1.39;100.00;100557.94;4971038;28;19934;-77
2021/12/23 09:26:34;;;;;;;;;;;-0.80;99.90;;;-1.37;100.00;100559.75;4986268;28;19926;-76
2021/12/23 09:29:12;;;;;;;;;;;2.00;99.90;;;-1.34;100.00;100556.34;4970623;28;20435;-77
2021/12/23 09:34:25;;;;;;;;;;;1.90;99.90;;;-1.27;100.00;100553.13;4969469;28;19930;-77
2021/12/23 09:36:52;;;;;;;;;;;2.30;99.90;;;-1.20;100.00;100562.78;4987833;28;19926;-78
2021/12/23 09:39:22;;;;;;;;;;;-0.40;99.90;;;-1.16;100.00;100551.72;4981151;28;19930;-79
2021/12/23 09:41:49;;;;;;;;;;;0.40;99.90;;;-1.13;100.00;100545.72;4953979;29;19942;-79
2021/12/23 09:44:16;;;;;;;;;;;-0.10;99.90;;;-1.08;100.00;100541.59;4970680;28;20395;-79
2021/12/23 09:46:43;;;;;;;;;;;0.80;99.90;;;-1.06;100.00;100550.25;4954977;29;19930;-79
2021/12/23 09:49:10;;;;;;;;;;;2.20;99.90;;;-0.98;100.00;100550.44;4969785;28;20026;-78
2021/12/23 09:51:42;;;;;;;;;;;-0.10;99.90;;;-0.95;100.00;100558.28;4955783;28;19946;-78
2021/12/23 09:54:12;;;;;;;;;;;0.50;99.90;;;-0.94;100.00;100554.84;4967430;28;20025;-78
2021/12/23 09:56:39;;;;;;;;;;;0.20;99.90;;;-0.88;100.00;100555.00;4973098;28;19931;-79
2021/12/23 09:59:09;;;;;;;;;;;-0.10;99.90;;;-0.81;100.00;100560.34;4953735;29;19941;-78
2021/12/23 10:01:37;;;;;;;;;;;0.40;99.90;;;-0.78;100.00;100561.31;4958637;28;20025;-78
2021/12/23 10:04:04;;;;;;;;;;;0.00;99.90;;;-0.74;100.00;100557.06;5001631;28;19917;-80
2021/12/23 10:06:32;;;;;;;;;;;2.30;99.90;;;-0.70;100.00;100558.03;4994886;28;19993;-79
2021/12/23 10:08:59;;;;;;;;;;;0.10;99.90;;;-0.67;100.00;100556.41;4977215;28;19957;-79
2021/12/23 10:31:44;;;;;;;;;;;0.70;99.90;;;-0.23;100.00;100491.06;4981560;28;20208;-77
2021/12/23 10:37:17;;;;;;;;;;;1.10;99.90;;;-0.15;100.00;100489.53;4970020;28;19930;-78
2021/12/23 10:39:45;;;;;;;;;;;0.60;99.90;;;-0.09;100.00;100486.16;4979483;28;20021;-77
2021/12/23 10:42:18;;;;;;;;;;;1.90;99.90;;;-0.07;100.00;100479.34;4961125;28;19949;-77
2021/12/23 10:44:53;;;;;;;;;;;0.70;99.90;;;-0.02;100.00;100487.19;4970011;28;19973;-78
2021/12/23 10:47:36;;;;;;;;;;;0.70;99.90;;;0.01;100.00;100471.75;4957381;29;19927;-78
2021/12/23 10:53:13;;;;;;;;;;;0.70;99.90;;;0.06;100.00;100472.72;4951681;28;19930;-77
2021/12/23 10:58:29;;;;;;;;;;;2.00;99.90;;;0.06;100.00;100471.81;4974497;28;19926;-78
2021/12/23 11:01:00;;;;;;;;;;;1.40;99.90;;;0.18;100.00;100466.03;4972333;28;20598;-78
2021/12/23 11:03:37;;;;;;;;;;;2.00;99.90;;;0.22;100.00;100448.00;4965584;28;20030;-77
2021/12/23 11:40:06;;;;;;;;;;;1.40;99.90;;;0.90;100.00;100378.41;4963696;28;20670;-77
2021/12/23 11:43:00;;;;;;;;;;;1.50;99.90;;;0.99;100.00;100365.59;4952957;28;19933;-76
2021/12/23 11:45:23;;;;;;;;;;;3.90;99.90;;;1.05;100.00;100358.75;4950262;29;19933;-77
2021/12/23 11:47:52;;;;;;;;;;;3.10;99.90;;;1.02;100.00;100361.31;4961769;28;20007;-77
2021/12/23 11:50:29;;;;;;;;;;;1.70;99.90;;;1.13;100.00;100352.84;4950717;28;19934;-77
2021/12/23 11:52:58;;;;;;;;;;;1.60;99.90;;;1.16;100.00;100354.63;4950045;29;19933;-77
2021/12/23 11:55:25;;;;;;;;;;;1.70;99.90;;;1.20;100.00;100351.22;4952390;28;20001;-78
2021/12/23 11:57:54;;;;;;;;;;;1.90;99.90;;;1.26;100.00;100346.13;4955616;28;19937;-77
2021/12/23 12:00:32;;;;;;;;;;;4.30;99.90;;;1.34;100.00;100353.13;4967282;28;19927;-77
2021/12/23 12:03:04;;;;;;;;;;;3.30;99.90;;;1.34;100.00;100353.13;4952117;29;19931;-76
2021/12/23 12:05:33;;;;;;;;;;;3.80;99.90;;;1.37;100.00;100341.09;4938669;28;19926;-78
2021/12/23 12:08:12;;;;;;;;;;;1.90;99.90;;;1.42;100.00;100334.22;4974323;28;19962;-76
2021/12/23 12:10:41;;;;;;;;;;;2.10;99.90;;;1.40;100.00;100328.16;4969839;28;20296;-78
2021/12/23 12:13:11;;;;;;;;;;;2.10;99.90;;;1.41;100.00;100318.66;4972359;28;20445;-77
2021/12/23 12:15:38;;;;;;;;;;;4.80;99.90;;;1.35;100.00;100306.50;4970946;28;19929;-77
2021/12/23 12:18:23;;;;;;;;;;;3.90;99.90;;;1.44;100.00;100307.44;4941054;28;19965;-77
2021/12/23 12:21:19;;;;;;;;;;;2.00;99.90;;;1.51;100.00;100302.34;4971490;28;19957;-77
2021/12/23 12:23:46;;;;;;;;;;;2.50;99.90;;;1.59;100.00;100299.84;4972269;28;20405;-78
2021/12/23 12:26:26;;;;;;;;;;;1.90;99.90;;;1.62;100.00;100297.28;4973072;28;20288;-77